sensor_id;sensor_type;location;lat;lon;timestamp;temperature;humidity
23671;DHT22;12012;51.998;7.614;2022-10-15T00:01:40;12.50;99.30
23671;DHT22;12012;51.998;7.614;2022-10-15T00:04:06;12.50;99.60
23671;DHT22;12012;51.998;7.614;2022-10-15T00:06:31;12.40;99.90
23671;DHT22;12012;51.998;7.614;2022-10-15T00:08:57;12.40;99.90
23671;DHT22;12012;51.998;7.614;2022-10-15T00:11:24;12.40;99.90
23671;DHT22;12012;51.998;7.614;2022-10-15T00:13:52;12.50;99.90
23671;DHT22;12012;51.998;7.614;2022-10-15T00:16:20;12.40;99.90
23671;DHT22;12012;51.998;7.614;2022-10-15T00:18:46;12.40;99.90
23671;DHT22;12012;51.998;7.614;2022-10-15T00:21:14;12.40;99.90
23671;DHT22;12012;51.998;7.614;2022-10-15T00:23:40;12.50;99.90
23671;DHT22;12012;51.998;7.614;2022-10-15T00:26:08;12.40;99.90
23671;DHT22;12012;51.998;7.614;2022-10-15T00:28:34;12.50;99.90
23671;DHT22;12012;51.998;7.614;2022-10-15T00:31:11;12.50;99.90
23671;DHT22;12012;51.998;7.614;2022-10-15T00:33:37;12.40;99.90
23671;DHT22;12012;51.998;7.614;2022-10-15T00:36:07;12.50;99.90
23671;DHT22;12012;51.998;7.614;2022-10-15T00:38:34;12.50;99.90
23671;DHT22;12012;51.998;7.614;2022-10-15T00:41:00;12.50;99.90
23671;DHT22;12012;51.998;7.614;2022-10-15T00:43:45;12.50;99.90
23671;DHT22;12012;51.998;7.614;2022-10-15T00:46:24;12.50;99.90
23671;DHT22;12012;51.998;7.614;2022-10-15T00:49:17;12.50;99.90
23671;DHT22;12012;51.998;7.614;2022-10-15T00:51:45;12.50;99.90
23671;DHT22;12012;51.998;7.614;2022-10-15T00:54:12;12.50;99.90
23671;DHT22;12012;51.998;7.614;2022-10-15T00:56:40;12.50;99.90
23671;DHT22;12012;51.998;7.614;2022-10-15T00:59:08;12.50;99.90
23671;DHT22;12012;51.998;7.614;2022-10-15T01:01:34;12.50;99.90
23671;DHT22;12012;51.998;7.614;2022-10-15T01:04:01;12.50;99.90
23671;DHT22;12012;51.998;7.614;2022-10-15T01:06:27;12.50;99.90
23671;DHT22;12012;51.998;7.614;2022-10-15T01:08:53;12.50;99.90
23671;DHT22;12012;51.998;7.614;2022-10-15T01:16:49;12.50;99.90
23671;DHT22;12012;51.998;7.614;2022-10-15T01:27:57;12.50;99.90
23671;DHT22;12012;51.998;7.614;2022-10-15T01:30:51;12.50;99.90
23671;DHT22;12012;51.998;7.614;2022-10-15T01:33:26;12.50;99.90
23671;DHT22;12012;51.998;7.614;2022-10-15T01:36:13;12.50;99.90
23671;DHT22;12012;51.998;7.614;2022-10-15T01:42:00;12.50;99.90
23671;DHT22;12012;51.998;7.614;2022-10-15T01:44:39;12.50;99.90
23671;DHT22;12012;51.998;7.614;2022-10-15T01:47:13;12.50;99.90
23671;DHT22;12012;51.998;7.614;2022-10-15T01:49:42;12.50;99.90
23671;DHT22;12012;51.998;7.614;2022-10-15T01:52:14;12.50;99.90
23671;DHT22;12012;51.998;7.614;2022-10-15T01:54:43;12.50;99.90
23671;DHT22;12012;51.998;7.614;2022-10-15T01:57:11;12.50;99.90
23671;DHT22;12012;51.998;7.614;2022-10-15T01:59:37;12.50;99.90
23671;DHT22;12012;51.998;7.614;2022-10-15T02:02:02;12.50;99.90
23671;DHT22;12012;51.998;7.614;2022-10-15T02:04:30;12.50;99.90
23671;DHT22;12012;51.998;7.614;2022-10-15T02:10:06;12.50;99.90
23671;DHT22;12012;51.998;7.614;2022-10-15T02:17:55;12.50;99.90
23671;DHT22;12012;51.998;7.614;2022-10-15T02:20:23;12.50;99.90
23671;DHT22;12012;51.998;7.614;2022-10-15T02:23:05;12.50;99.90
23671;DHT22;12012;51.998;7.614;2022-10-15T02:25:33;12.50;99.90
23671;DHT22;12012;51.998;7.614;2022-10-15T02:28:01;12.40;99.90
23671;DHT22;12012;51.998;7.614;2022-10-15T02:30:29;12.40;99.90
23671;DHT22;12012;51.998;7.614;2022-10-15T02:32:57;12.40;99.90
23671;DHT22;12012;51.998;7.614;2022-10-15T02:35:25;12.40;99.90
23671;DHT22;12012;51.998;7.614;2022-10-15T02:37:53;12.40;99.90
23671;DHT22;12012;51.998;7.614;2022-10-15T02:40:24;12.40;99.90
23671;DHT22;12012;51.998;7.614;2022-10-15T02:42:51;12.40;99.90
23671;DHT22;12012;51.998;7.614;2022-10-15T02:45:17;12.40;99.90
23671;DHT22;12012;51.998;7.614;2022-10-15T02:47:43;12.40;99.90
23671;DHT22;12012;51.998;7.614;2022-10-15T02:50:09;12.40;99.90
23671;DHT22;12012;51.998;7.614;2022-10-15T02:52:34;12.40;99.90
23671;DHT22;12012;51.998;7.614;2022-10-15T02:55:00;12.40;99.90
23671;DHT22;12012;51.998;7.614;2022-10-15T02:57:25;12.40;99.90
23671;DHT22;12012;51.998;7.614;2022-10-15T02:59:51;12.40;99.90
23671;DHT22;12012;51.998;7.614;2022-10-15T03:02:16;12.40;99.90
23671;DHT22;12012;51.998;7.614;2022-10-15T03:04:42;12.40;99.90
23671;DHT22;12012;51.998;7.614;2022-10-15T03:07:07;12.30;99.90
23671;DHT22;12012;51.998;7.614;2022-10-15T03:09:33;12.30;99.90
23671;DHT22;12012;51.998;7.614;2022-10-15T03:11:59;12.40;99.90
23671;DHT22;12012;51.998;7.614;2022-10-15T03:14:24;12.40;99.90
23671;DHT22;12012;51.998;7.614;2022-10-15T03:16:50;12.40;99.90
23671;DHT22;12012;51.998;7.614;2022-10-15T03:19:15;12.40;99.90
23671;DHT22;12012;51.998;7.614;2022-10-15T03:21:41;12.40;99.90
23671;DHT22;12012;51.998;7.614;2022-10-15T03:24:06;12.40;99.90
23671;DHT22;12012;51.998;7.614;2022-10-15T03:26:32;12.40;99.90
23671;DHT22;12012;51.998;7.614;2022-10-15T03:28:58;12.40;99.90
23671;DHT22;12012;51.998;7.614;2022-10-15T03:31:23;12.40;99.90
23671;DHT22;12012;51.998;7.614;2022-10-15T03:33:49;12.40;99.90
23671;DHT22;12012;51.998;7.614;2022-10-15T03:36:15;12.40;99.90
23671;DHT22;12012;51.998;7.614;2022-10-15T03:38:40;12.40;99.90
23671;DHT22;12012;51.998;7.614;2022-10-15T03:41:06;12.30;99.90
23671;DHT22;12012;51.998;7.614;2022-10-15T03:43:32;12.30;99.90
23671;DHT22;12012;51.998;7.614;2022-10-15T03:46:01;12.30;99.90
23671;DHT22;12012;51.998;7.614;2022-10-15T03:48:26;12.30;99.90
23671;DHT22;12012;51.998;7.614;2022-10-15T03:50:52;12.30;99.90
23671;DHT22;12012;51.998;7.614;2022-10-15T03:53:17;12.30;99.90
23671;DHT22;12012;51.998;7.614;2022-10-15T03:55:43;12.30;99.90
23671;DHT22;12012;51.998;7.614;2022-10-15T03:58:08;12.30;99.90
23671;DHT22;12012;51.998;7.614;2022-10-15T04:00:34;12.20;99.90
23671;DHT22;12012;51.998;7.614;2022-10-15T04:02:59;12.20;99.90
23671;DHT22;12012;51.998;7.614;2022-10-15T04:05:25;12.20;99.90
23671;DHT22;12012;51.998;7.614;2022-10-15T04:07:51;12.20;99.90
23671;DHT22;12012;51.998;7.614;2022-10-15T04:10:16;12.20;99.90
23671;DHT22;12012;51.998;7.614;2022-10-15T04:12:42;12.20;99.90
23671;DHT22;12012;51.998;7.614;2022-10-15T04:15:08;12.20;99.90
23671;DHT22;12012;51.998;7.614;2022-10-15T04:17:33;12.20;99.90
23671;DHT22;12012;51.998;7.614;2022-10-15T04:19:59;12.20;99.90
23671;DHT22;12012;51.998;7.614;2022-10-15T04:22:24;12.10;99.90
23671;DHT22;12012;51.998;7.614;2022-10-15T04:24:50;12.20;99.90
23671;DHT22;12012;51.998;7.614;2022-10-15T04:27:15;12.10;99.90
23671;DHT22;12012;51.998;7.614;2022-10-15T04:29:41;12.10;99.90
23671;DHT22;12012;51.998;7.614;2022-10-15T04:32:06;12.10;99.90
23671;DHT22;12012;51.998;7.614;2022-10-15T04:34:32;12.10;99.90
23671;DHT22;12012;51.998;7.614;2022-10-15T04:36:58;12.10;99.90
23671;DHT22;12012;51.998;7.614;2022-10-15T04:39:23;12.10;99.90
23671;DHT22;12012;51.998;7.614;2022-10-15T04:41:49;12.10;99.90
23671;DHT22;12012;51.998;7.614;2022-10-15T04:44:14;12.00;99.90
23671;DHT22;12012;51.998;7.614;2022-10-15T04:46:40;12.00;99.90
23671;DHT22;12012;51.998;7.614;2022-10-15T04:49:05;12.00;99.90
23671;DHT22;12012;51.998;7.614;2022-10-15T04:51:31;12.00;99.90
23671;DHT22;12012;51.998;7.614;2022-10-15T04:53:56;12.00;99.90
23671;DHT22;12012;51.998;7.614;2022-10-15T04:56:22;12.00;99.90
23671;DHT22;12012;51.998;7.614;2022-10-15T04:58:49;12.00;99.90
23671;DHT22;12012;51.998;7.614;2022-10-15T05:01:17;12.00;99.90
23671;DHT22;12012;51.998;7.614;2022-10-15T05:03:44;12.00;99.90
23671;DHT22;12012;51.998;7.614;2022-10-15T05:06:12;12.00;99.90
23671;DHT22;12012;51.998;7.614;2022-10-15T05:08:38;12.00;99.90
23671;DHT22;12012;51.998;7.614;2022-10-15T05:11:13;12.00;99.90
23671;DHT22;12012;51.998;7.614;2022-10-15T05:13:39;12.00;99.90
23671;DHT22;12012;51.998;7.614;2022-10-15T05:16:22;12.00;99.90
23671;DHT22;12012;51.998;7.614;2022-10-15T05:18:50;12.00;99.90
23671;DHT22;12012;51.998;7.614;2022-10-15T05:21:19;12.00;99.90
23671;DHT22;12012;51.998;7.614;2022-10-15T05:23:44;12.00;99.90
23671;DHT22;12012;51.998;7.614;2022-10-15T05:26:15;12.00;99.90
23671;DHT22;12012;51.998;7.614;2022-10-15T05:28:41;12.00;99.90
23671;DHT22;12012;51.998;7.614;2022-10-15T05:31:17;12.00;99.90
23671;DHT22;12012;51.998;7.614;2022-10-15T05:33:43;12.00;99.90
23671;DHT22;12012;51.998;7.614;2022-10-15T05:38:38;12.00;99.90
23671;DHT22;12012;51.998;7.614;2022-10-15T05:41:04;12.00;99.90
23671;DHT22;12012;51.998;7.614;2022-10-15T05:43:30;12.00;99.90
23671;DHT22;12012;51.998;7.614;2022-10-15T05:45:56;12.00;99.90
23671;DHT22;12012;51.998;7.614;2022-10-15T05:48:22;11.90;99.90
23671;DHT22;12012;51.998;7.614;2022-10-15T05:50:47;12.00;99.90
23671;DHT22;12012;51.998;7.614;2022-10-15T05:53:13;12.00;99.90
23671;DHT22;12012;51.998;7.614;2022-10-15T05:55:39;12.00;99.90
23671;DHT22;12012;51.998;7.614;2022-10-15T05:58:05;12.00;99.90
23671;DHT22;12012;51.998;7.614;2022-10-15T06:00:31;12.00;99.90
23671;DHT22;12012;51.998;7.614;2022-10-15T06:02:57;12.00;99.90
23671;DHT22;12012;51.998;7.614;2022-10-15T06:05:23;12.00;99.90
23671;DHT22;12012;51.998;7.614;2022-10-15T06:07:48;12.00;99.90
23671;DHT22;12012;51.998;7.614;2022-10-15T06:10:14;12.00;99.90
23671;DHT22;12012;51.998;7.614;2022-10-15T06:12:40;12.00;99.90
23671;DHT22;12012;51.998;7.614;2022-10-15T06:15:07;12.10;99.90
23671;DHT22;12012;51.998;7.614;2022-10-15T06:17:32;12.10;99.90
23671;DHT22;12012;51.998;7.614;2022-10-15T06:19:58;12.10;99.90
23671;DHT22;12012;51.998;7.614;2022-10-15T06:22:24;12.10;99.90
23671;DHT22;12012;51.998;7.614;2022-10-15T06:24:49;12.20;99.90
23671;DHT22;12012;51.998;7.614;2022-10-15T06:27:15;12.20;99.90
23671;DHT22;12012;51.998;7.614;2022-10-15T06:29:40;12.30;99.90
23671;DHT22;12012;51.998;7.614;2022-10-15T06:32:10;12.30;99.90
23671;DHT22;12012;51.998;7.614;2022-10-15T06:34:36;12.30;99.90
23671;DHT22;12012;51.998;7.614;2022-10-15T06:37:01;12.40;99.90
23671;DHT22;12012;51.998;7.614;2022-10-15T06:39:27;12.40;99.90
23671;DHT22;12012;51.998;7.614;2022-10-15T06:41:52;12.50;99.90
23671;DHT22;12012;51.998;7.614;2022-10-15T06:44:18;12.50;99.90
23671;DHT22;12012;51.998;7.614;2022-10-15T06:46:43;12.60;99.90
23671;DHT22;12012;51.998;7.614;2022-10-15T06:49:09;12.60;99.90
23671;DHT22;12012;51.998;7.614;2022-10-15T06:51:34;12.70;99.90
23671;DHT22;12012;51.998;7.614;2022-10-15T06:56:32;12.80;99.90
23671;DHT22;12012;51.998;7.614;2022-10-15T06:58:58;12.90;99.90
23671;DHT22;12012;51.998;7.614;2022-10-15T07:01:23;12.90;99.90
23671;DHT22;12012;51.998;7.614;2022-10-15T07:03:52;13.00;99.90
23671;DHT22;12012;51.998;7.614;2022-10-15T07:06:18;13.00;99.90
23671;DHT22;12012;51.998;7.614;2022-10-15T07:08:43;13.00;99.90
23671;DHT22;12012;51.998;7.614;2022-10-15T07:11:10;13.10;99.90
23671;DHT22;12012;51.998;7.614;2022-10-15T07:13:36;13.20;99.90
23671;DHT22;12012;51.998;7.614;2022-10-15T07:16:10;13.20;99.90
23671;DHT22;12012;51.998;7.614;2022-10-15T07:18:37;13.20;99.90
23671;DHT22;12012;51.998;7.614;2022-10-15T07:21:04;13.20;99.90
23671;DHT22;12012;51.998;7.614;2022-10-15T07:23:30;13.30;99.90
23671;DHT22;12012;51.998;7.614;2022-10-15T07:25:59;13.40;99.90
23671;DHT22;12012;51.998;7.614;2022-10-15T07:28:26;13.40;99.90
23671;DHT22;12012;51.998;7.614;2022-10-15T07:30:51;13.40;99.90
23671;DHT22;12012;51.998;7.614;2022-10-15T07:33:17;13.40;99.90
23671;DHT22;12012;51.998;7.614;2022-10-15T07:35:43;13.40;99.90
23671;DHT22;12012;51.998;7.614;2022-10-15T07:38:08;13.40;99.90
23671;DHT22;12012;51.998;7.614;2022-10-15T07:40:34;13.50;99.90
23671;DHT22;12012;51.998;7.614;2022-10-15T07:42:59;13.50;99.90
23671;DHT22;12012;51.998;7.614;2022-10-15T07:45:26;13.60;99.90
23671;DHT22;12012;51.998;7.614;2022-10-15T07:47:52;13.60;99.90
23671;DHT22;12012;51.998;7.614;2022-10-15T07:50:19;13.60;99.90
23671;DHT22;12012;51.998;7.614;2022-10-15T07:52:45;13.70;99.90
23671;DHT22;12012;51.998;7.614;2022-10-15T07:55:11;13.80;99.90
23671;DHT22;12012;51.998;7.614;2022-10-15T07:57:37;13.90;99.90
23671;DHT22;12012;51.998;7.614;2022-10-15T08:00:04;14.00;99.90
23671;DHT22;12012;51.998;7.614;2022-10-15T08:02:29;14.10;99.90
23671;DHT22;12012;51.998;7.614;2022-10-15T08:04:55;14.20;99.90
23671;DHT22;12012;51.998;7.614;2022-10-15T08:07:21;14.40;99.90
23671;DHT22;12012;51.998;7.614;2022-10-15T08:09:46;14.60;99.90
23671;DHT22;12012;51.998;7.614;2022-10-15T08:12:12;14.70;99.90
23671;DHT22;12012;51.998;7.614;2022-10-15T08:14:37;14.80;99.90
23671;DHT22;12012;51.998;7.614;2022-10-15T08:17:03;14.90;99.90
23671;DHT22;12012;51.998;7.614;2022-10-15T08:19:29;14.90;99.90
23671;DHT22;12012;51.998;7.614;2022-10-15T08:21:55;14.80;99.90
23671;DHT22;12012;51.998;7.614;2022-10-15T08:24:21;14.90;99.90
23671;DHT22;12012;51.998;7.614;2022-10-15T08:26:46;14.90;99.90
23671;DHT22;12012;51.998;7.614;2022-10-15T08:29:12;15.00;99.90
23671;DHT22;12012;51.998;7.614;2022-10-15T08:31:38;15.00;99.90
23671;DHT22;12012;51.998;7.614;2022-10-15T08:34:04;15.00;99.90
23671;DHT22;12012;51.998;7.614;2022-10-15T08:36:30;15.00;99.90
23671;DHT22;12012;51.998;7.614;2022-10-15T08:38:56;15.00;99.90
23671;DHT22;12012;51.998;7.614;2022-10-15T08:41:39;15.00;99.90
23671;DHT22;12012;51.998;7.614;2022-10-15T08:44:25;15.00;99.90
23671;DHT22;12012;51.998;7.614;2022-10-15T08:46:58;15.00;99.90
23671;DHT22;12012;51.998;7.614;2022-10-15T08:50:15;15.10;99.90
23671;DHT22;12012;51.998;7.614;2022-10-15T08:52:45;15.10;99.90
23671;DHT22;12012;51.998;7.614;2022-10-15T08:55:13;15.30;99.90
23671;DHT22;12012;51.998;7.614;2022-10-15T08:57:53;15.40;99.40
23671;DHT22;12012;51.998;7.614;2022-10-15T09:00:24;15.60;98.90
23671;DHT22;12012;51.998;7.614;2022-10-15T09:05:38;15.80;96.30
23671;DHT22;12012;51.998;7.614;2022-10-15T09:14:27;16.30;94.10
23671;DHT22;12012;51.998;7.614;2022-10-15T09:16:53;16.30;94.40
23671;DHT22;12012;51.998;7.614;2022-10-15T09:19:24;16.40;94.40
23671;DHT22;12012;51.998;7.614;2022-10-15T09:21:51;16.30;93.70
23671;DHT22;12012;51.998;7.614;2022-10-15T09:24:24;16.30;94.40
23671;DHT22;12012;51.998;7.614;2022-10-15T09:34:45;16.00;89.90
23671;DHT22;12012;51.998;7.614;2022-10-15T09:37:23;15.90;90.50
23671;DHT22;12012;51.998;7.614;2022-10-15T09:40:15;15.90;91.00
23671;DHT22;12012;51.998;7.614;2022-10-15T09:42:46;15.90;91.60
23671;DHT22;12012;51.998;7.614;2022-10-15T09:45:14;15.80;92.00
23671;DHT22;12012;51.998;7.614;2022-10-15T09:47:42;15.90;91.80
23671;DHT22;12012;51.998;7.614;2022-10-15T09:50:11;16.00;90.80
23671;DHT22;12012;51.998;7.614;2022-10-15T09:53:06;16.30;89.10
23671;DHT22;12012;51.998;7.614;2022-10-15T09:56:08;16.70;78.90
23671;DHT22;12012;51.998;7.614;2022-10-15T09:58:43;17.40;71.40
23671;DHT22;12012;51.998;7.614;2022-10-15T10:01:32;18.10;58.70
23671;DHT22;12012;51.998;7.614;2022-10-15T10:04:18;18.60;40.70
23671;DHT22;12012;51.998;7.614;2022-10-15T10:06:48;19.10;41.10
23671;DHT22;12012;51.998;7.614;2022-10-15T10:09:48;19.60;27.00
23671;DHT22;12012;51.998;7.614;2022-10-15T10:12:20;19.90;11.40
23671;DHT22;12012;51.998;7.614;2022-10-15T10:14:53;20.30;1.60
23671;DHT22;12012;51.998;7.614;2022-10-15T10:17:22;20.40;1.00
23671;DHT22;12012;51.998;7.614;2022-10-15T10:20:13;20.90;1.00
23671;DHT22;12012;51.998;7.614;2022-10-15T10:22:47;21.30;1.00
23671;DHT22;12012;51.998;7.614;2022-10-15T10:30:35;22.20;99.90
23671;DHT22;12012;51.998;7.614;2022-10-15T10:33:02;21.80;1.00
23671;DHT22;12012;51.998;7.614;2022-10-15T10:35:43;21.60;1.00
23671;DHT22;12012;51.998;7.614;2022-10-15T10:38:27;21.10;1.00
23671;DHT22;12012;51.998;7.614;2022-10-15T10:40:56;20.70;1.00
23671;DHT22;12012;51.998;7.614;2022-10-15T10:43:34;20.50;1.00
23671;DHT22;12012;51.998;7.614;2022-10-15T10:48:52;20.70;1.00
23671;DHT22;12012;51.998;7.614;2022-10-15T10:51:23;20.80;1.00
23671;DHT22;12012;51.998;7.614;2022-10-15T10:56:35;21.40;99.90
23671;DHT22;12012;51.998;7.614;2022-10-15T10:59:18;22.30;99.90
23671;DHT22;12012;51.998;7.614;2022-10-15T11:01:46;23.10;99.90
23671;DHT22;12012;51.998;7.614;2022-10-15T11:04:31;23.90;99.90
23671;DHT22;12012;51.998;7.614;2022-10-15T11:07:08;24.70;99.90
23671;DHT22;12012;51.998;7.614;2022-10-15T11:10:04;25.50;99.90
23671;DHT22;12012;51.998;7.614;2022-10-15T11:12:44;25.60;99.90
23671;DHT22;12012;51.998;7.614;2022-10-15T11:34:44;25.40;97.40
23671;DHT22;12012;51.998;7.614;2022-10-15T11:36:59;25.00;97.50
23671;DHT22;12012;51.998;7.614;2022-10-15T11:42:12;24.10;97.50
23671;DHT22;12012;51.998;7.614;2022-10-15T11:45:07;23.30;97.30
23671;DHT22;12012;51.998;7.614;2022-10-15T11:47:53;22.50;99.90
23671;DHT22;12012;51.998;7.614;2022-10-15T11:50:29;21.90;99.90
23671;DHT22;12012;51.998;7.614;2022-10-15T11:58:36;20.40;99.90
23671;DHT22;12012;51.998;7.614;2022-10-15T12:01:12;19.80;99.90
23671;DHT22;12012;51.998;7.614;2022-10-15T12:04:02;19.30;1.00
23671;DHT22;12012;51.998;7.614;2022-10-15T12:06:35;18.70;99.90
23671;DHT22;12012;51.998;7.614;2022-10-15T12:09:03;18.30;1.00
23671;DHT22;12012;51.998;7.614;2022-10-15T12:14:50;17.80;99.90
23671;DHT22;12012;51.998;7.614;2022-10-15T12:17:34;17.60;1.00
23671;DHT22;12012;51.998;7.614;2022-10-15T12:22:54;17.40;99.90
23671;DHT22;12012;51.998;7.614;2022-10-15T12:25:50;17.40;1.00
23671;DHT22;12012;51.998;7.614;2022-10-15T12:28:21;17.40;99.90
23671;DHT22;12012;51.998;7.614;2022-10-15T12:31:02;17.30;99.90
23671;DHT22;12012;51.998;7.614;2022-10-15T12:33:38;17.30;99.90
23671;DHT22;12012;51.998;7.614;2022-10-15T12:36:22;17.30;48.50
23671;DHT22;12012;51.998;7.614;2022-10-15T12:39:18;17.20;99.90
23671;DHT22;12012;51.998;7.614;2022-10-15T12:41:47;17.10;99.90
23671;DHT22;12012;51.998;7.614;2022-10-15T12:44:24;17.00;1.00
23671;DHT22;12012;51.998;7.614;2022-10-15T12:46:52;16.90;1.00
23671;DHT22;12012;51.998;7.614;2022-10-15T12:51:57;16.90;1.00
23671;DHT22;12012;51.998;7.614;2022-10-15T12:54:43;16.80;1.00
23671;DHT22;12012;51.998;7.614;2022-10-15T12:59:58;16.80;1.00
23671;DHT22;12012;51.998;7.614;2022-10-15T13:02:44;16.80;1.00
23671;DHT22;12012;51.998;7.614;2022-10-15T13:05:31;16.80;1.00
23671;DHT22;12012;51.998;7.614;2022-10-15T13:07:59;16.70;1.00
23671;DHT22;12012;51.998;7.614;2022-10-15T13:10:29;16.70;1.00
23671;DHT22;12012;51.998;7.614;2022-10-15T13:13:00;16.70;1.00
23671;DHT22;12012;51.998;7.614;2022-10-15T13:15:28;16.70;11.50
23671;DHT22;12012;51.998;7.614;2022-10-15T13:17:55;16.70;1.00
23671;DHT22;12012;51.998;7.614;2022-10-15T13:20:29;16.70;18.60
23671;DHT22;12012;51.998;7.614;2022-10-15T13:23:19;16.70;18.60
23671;DHT22;12012;51.998;7.614;2022-10-15T13:25:46;16.70;21.50
23671;DHT22;12012;51.998;7.614;2022-10-15T13:28:32;16.80;36.00
23671;DHT22;12012;51.998;7.614;2022-10-15T13:31:00;16.80;32.10
23671;DHT22;12012;51.998;7.614;2022-10-15T13:33:26;16.70;40.90
23671;DHT22;12012;51.998;7.614;2022-10-15T13:35:52;16.70;49.10
23671;DHT22;12012;51.998;7.614;2022-10-15T13:38:22;16.70;44.60
23671;DHT22;12012;51.998;7.614;2022-10-15T13:40:50;16.70;56.50
23671;DHT22;12012;51.998;7.614;2022-10-15T13:43:19;16.60;62.20
23671;DHT22;12012;51.998;7.614;2022-10-15T13:45:53;16.60;65.40
23671;DHT22;12012;51.998;7.614;2022-10-15T13:48:30;16.60;72.70
23671;DHT22;12012;51.998;7.614;2022-10-15T13:50:59;16.50;77.80
23671;DHT22;12012;51.998;7.614;2022-10-15T13:53:33;16.50;74.40
23671;DHT22;12012;51.998;7.614;2022-10-15T13:56:04;16.50;77.30
23671;DHT22;12012;51.998;7.614;2022-10-15T13:58:39;16.50;80.40
23671;DHT22;12012;51.998;7.614;2022-10-15T14:03:43;16.60;80.50
23671;DHT22;12012;51.998;7.614;2022-10-15T14:08:42;16.80;84.90
23671;DHT22;12012;51.998;7.614;2022-10-15T14:11:11;16.80;85.60
23671;DHT22;12012;51.998;7.614;2022-10-15T14:13:52;16.80;83.90
23671;DHT22;12012;51.998;7.614;2022-10-15T14:16:44;16.90;87.90
23671;DHT22;12012;51.998;7.614;2022-10-15T14:19:16;16.90;80.20
23671;DHT22;12012;51.998;7.614;2022-10-15T14:21:44;16.90;86.50
23671;DHT22;12012;51.998;7.614;2022-10-15T14:24:17;16.90;88.10
23671;DHT22;12012;51.998;7.614;2022-10-15T14:26:45;16.90;83.10
23671;DHT22;12012;51.998;7.614;2022-10-15T14:29:25;16.90;87.40
23671;DHT22;12012;51.998;7.614;2022-10-15T14:31:51;16.90;85.60
23671;DHT22;12012;51.998;7.614;2022-10-15T14:36:51;17.00;82.20
23671;DHT22;12012;51.998;7.614;2022-10-15T14:39:31;17.00;86.10
23671;DHT22;12012;51.998;7.614;2022-10-15T14:42:01;17.00;87.10
23671;DHT22;12012;51.998;7.614;2022-10-15T14:44:43;17.20;91.10
23671;DHT22;12012;51.998;7.614;2022-10-15T14:47:17;17.20;90.70
23671;DHT22;12012;51.998;7.614;2022-10-15T14:49:43;17.30;89.60
23671;DHT22;12012;51.998;7.614;2022-10-15T14:52:15;17.30;89.50
23671;DHT22;12012;51.998;7.614;2022-10-15T14:54:47;17.40;85.60
23671;DHT22;12012;51.998;7.614;2022-10-15T14:57:25;17.40;84.60
23671;DHT22;12012;51.998;7.614;2022-10-15T14:59:52;17.40;82.20
23671;DHT22;12012;51.998;7.614;2022-10-15T15:02:22;17.40;86.10
23671;DHT22;12012;51.998;7.614;2022-10-15T15:07:38;17.40;86.80
23671;DHT22;12012;51.998;7.614;2022-10-15T15:10:05;17.40;87.90
23671;DHT22;12012;51.998;7.614;2022-10-15T15:12:32;17.40;85.80
23671;DHT22;12012;51.998;7.614;2022-10-15T15:14:58;17.40;84.20
23671;DHT22;12012;51.998;7.614;2022-10-15T15:17:25;17.50;86.70
23671;DHT22;12012;51.998;7.614;2022-10-15T15:19:53;17.50;85.80
23671;DHT22;12012;51.998;7.614;2022-10-15T15:22:29;17.50;83.40
23671;DHT22;12012;51.998;7.614;2022-10-15T15:24:55;17.50;83.80
23671;DHT22;12012;51.998;7.614;2022-10-15T15:27:27;17.50;84.30
23671;DHT22;12012;51.998;7.614;2022-10-15T15:29:54;17.50;84.80
23671;DHT22;12012;51.998;7.614;2022-10-15T15:32:21;17.50;87.40
23671;DHT22;12012;51.998;7.614;2022-10-15T15:34:48;17.50;84.80
23671;DHT22;12012;51.998;7.614;2022-10-15T15:37:19;17.50;82.30
23671;DHT22;12012;51.998;7.614;2022-10-15T15:39:45;17.40;85.30
23671;DHT22;12012;51.998;7.614;2022-10-15T15:42:16;17.40;82.10
23671;DHT22;12012;51.998;7.614;2022-10-15T15:44:42;17.40;80.90
23671;DHT22;12012;51.998;7.614;2022-10-15T15:47:08;17.40;80.00
23671;DHT22;12012;51.998;7.614;2022-10-15T15:49:34;17.30;80.00
23671;DHT22;12012;51.998;7.614;2022-10-15T15:52:00;17.30;80.30
23671;DHT22;12012;51.998;7.614;2022-10-15T15:54:27;17.30;79.20
23671;DHT22;12012;51.998;7.614;2022-10-15T15:56:52;17.30;81.00
23671;DHT22;12012;51.998;7.614;2022-10-15T15:59:18;17.30;80.00
23671;DHT22;12012;51.998;7.614;2022-10-15T16:01:44;17.20;81.60
23671;DHT22;12012;51.998;7.614;2022-10-15T16:04:10;17.30;85.60
23671;DHT22;12012;51.998;7.614;2022-10-15T16:06:38;17.20;90.20
23671;DHT22;12012;51.998;7.614;2022-10-15T16:09:04;17.30;88.80
23671;DHT22;12012;51.998;7.614;2022-10-15T16:11:31;17.20;87.90
23671;DHT22;12012;51.998;7.614;2022-10-15T16:13:57;17.20;85.60
23671;DHT22;12012;51.998;7.614;2022-10-15T16:16:22;17.20;88.60
23671;DHT22;12012;51.998;7.614;2022-10-15T16:18:49;17.20;87.20
23671;DHT22;12012;51.998;7.614;2022-10-15T16:21:20;17.20;84.20
23671;DHT22;12012;51.998;7.614;2022-10-15T16:23:46;17.20;87.10
23671;DHT22;12012;51.998;7.614;2022-10-15T16:26:12;17.20;85.70
23671;DHT22;12012;51.998;7.614;2022-10-15T16:28:37;17.10;87.30
23671;DHT22;12012;51.998;7.614;2022-10-15T16:31:23;17.00;90.10
23671;DHT22;12012;51.998;7.614;2022-10-15T16:33:49;17.00;90.00
23671;DHT22;12012;51.998;7.614;2022-10-15T16:36:15;17.00;91.60
23671;DHT22;12012;51.998;7.614;2022-10-15T16:38:44;16.90;91.40
23671;DHT22;12012;51.998;7.614;2022-10-15T16:41:10;16.90;94.70
23671;DHT22;12012;51.998;7.614;2022-10-15T16:43:37;16.80;92.90
23671;DHT22;12012;51.998;7.614;2022-10-15T16:46:03;16.80;92.00
23671;DHT22;12012;51.998;7.614;2022-10-15T16:48:30;16.80;93.10
23671;DHT22;12012;51.998;7.614;2022-10-15T16:51:03;16.70;93.80
23671;DHT22;12012;51.998;7.614;2022-10-15T16:53:31;16.70;94.90
23671;DHT22;12012;51.998;7.614;2022-10-15T16:56:06;16.70;96.60
23671;DHT22;12012;51.998;7.614;2022-10-15T16:58:32;16.60;95.10
23671;DHT22;12012;51.998;7.614;2022-10-15T17:00:59;16.60;97.40
23671;DHT22;12012;51.998;7.614;2022-10-15T17:03:25;16.60;95.90
23671;DHT22;12012;51.998;7.614;2022-10-15T17:05:55;16.50;95.80
23671;DHT22;12012;51.998;7.614;2022-10-15T17:08:21;16.50;97.10
23671;DHT22;12012;51.998;7.614;2022-10-15T17:10:47;16.50;97.20
23671;DHT22;12012;51.998;7.614;2022-10-15T17:13:12;16.50;97.10
23671;DHT22;12012;51.998;7.614;2022-10-15T17:15:38;16.40;97.10
23671;DHT22;12012;51.998;7.614;2022-10-15T17:18:04;16.40;96.00
23671;DHT22;12012;51.998;7.614;2022-10-15T17:20:29;16.40;96.20
23671;DHT22;12012;51.998;7.614;2022-10-15T17:22:56;16.30;94.60
23671;DHT22;12012;51.998;7.614;2022-10-15T17:25:22;16.30;90.70
23671;DHT22;12012;51.998;7.614;2022-10-15T17:27:48;16.20;78.10
23671;DHT22;12012;51.998;7.614;2022-10-15T17:30:14;16.10;65.40
23671;DHT22;12012;51.998;7.614;2022-10-15T17:32:40;16.10;49.50
23671;DHT22;12012;51.998;7.614;2022-10-15T17:35:05;16.10;43.90
23671;DHT22;12012;51.998;7.614;2022-10-15T17:37:32;16.00;36.20